sensor_id;sensor_type;location;lat;lon;timestamp;P1;durP1;ratioP1;P2;durP2;ratioP2
52878;SDS011;38747;53.140;6.498;2023-06-26T00:02:02;11.27;;;7.10;;
52878;SDS011;38747;53.140;6.498;2023-06-26T00:04:28;9.35;;;6.65;;
52878;SDS011;38747;53.140;6.498;2023-06-26T00:06:54;9.37;;;6.63;;
52878;SDS011;38747;53.140;6.498;2023-06-26T00:09:19;9.77;;;6.57;;
52878;SDS011;38747;53.140;6.498;2023-06-26T00:11:45;10.60;;;7.13;;
52878;SDS011;38747;53.140;6.498;2023-06-26T00:14:11;8.90;;;6.47;;
52878;SDS011;38747;53.140;6.498;2023-06-26T00:16:36;9.55;;;7.10;;
52878;SDS011;38747;53.140;6.498;2023-06-26T00:19:02;10.80;;;7.07;;
52878;SDS011;38747;53.140;6.498;2023-06-26T00:21:27;8.77;;;6.65;;
52878;SDS011;38747;53.140;6.498;2023-06-26T00:23:53;13.07;;;7.37;;
52878;SDS011;38747;53.140;6.498;2023-06-26T00:26:19;9.83;;;6.80;;
52878;SDS011;38747;53.140;6.498;2023-06-26T00:28:44;10.02;;;7.50;;
52878;SDS011;38747;53.140;6.498;2023-06-26T00:31:10;9.77;;;6.77;;
52878;SDS011;38747;53.140;6.498;2023-06-26T00:33:36;10.35;;;7.20;;
52878;SDS011;38747;53.140;6.498;2023-06-26T00:36:01;11.43;;;6.90;;
52878;SDS011;38747;53.140;6.498;2023-06-26T00:38:27;10.68;;;7.22;;
52878;SDS011;38747;53.140;6.498;2023-06-26T00:40:52;10.07;;;6.90;;
52878;SDS011;38747;53.140;6.498;2023-06-26T00:43:19;10.60;;;7.15;;
52878;SDS011;38747;53.140;6.498;2023-06-26T00:45:45;10.13;;;6.97;;
52878;SDS011;38747;53.140;6.498;2023-06-26T00:48:11;11.03;;;7.73;;
52878;SDS011;38747;53.140;6.498;2023-06-26T00:50:37;11.40;;;8.25;;
52878;SDS011;38747;53.140;6.498;2023-06-26T00:53:03;9.90;;;7.30;;
52878;SDS011;38747;53.140;6.498;2023-06-26T00:55:29;11.27;;;7.38;;
52878;SDS011;38747;53.140;6.498;2023-06-26T00:57:54;11.80;;;7.60;;
52878;SDS011;38747;53.140;6.498;2023-06-26T01:00:21;9.70;;;7.75;;
52878;SDS011;38747;53.140;6.498;2023-06-26T01:02:46;12.20;;;7.47;;
52878;SDS011;38747;53.140;6.498;2023-06-26T01:05:13;10.95;;;7.72;;
52878;SDS011;38747;53.140;6.498;2023-06-26T01:07:45;10.13;;;7.55;;
52878;SDS011;38747;53.140;6.498;2023-06-26T01:10:12;13.07;;;7.83;;
52878;SDS011;38747;53.140;6.498;2023-06-26T01:12:38;13.05;;;8.10;;
52878;SDS011;38747;53.140;6.498;2023-06-26T01:15:04;10.65;;;7.88;;
52878;SDS011;38747;53.140;6.498;2023-06-26T01:17:30;12.82;;;8.27;;
52878;SDS011;38747;53.140;6.498;2023-06-26T01:20:00;10.63;;;8.03;;
52878;SDS011;38747;53.140;6.498;2023-06-26T01:22:45;11.80;;;7.97;;
52878;SDS011;38747;53.140;6.498;2023-06-26T01:27:49;10.13;;;7.20;;
52878;SDS011;38747;53.140;6.498;2023-06-26T01:30:17;11.77;;;8.10;;
52878;SDS011;38747;53.140;6.498;2023-06-26T01:32:45;11.63;;;8.05;;
52878;SDS011;38747;53.140;6.498;2023-06-26T01:35:12;10.80;;;7.93;;
52878;SDS011;38747;53.140;6.498;2023-06-26T01:37:38;11.38;;;7.72;;
52878;SDS011;38747;53.140;6.498;2023-06-26T01:40:04;12.17;;;8.17;;
52878;SDS011;38747;53.140;6.498;2023-06-26T01:42:33;11.07;;;8.93;;
52878;SDS011;38747;53.140;6.498;2023-06-26T01:45:07;12.55;;;9.07;;
52878;SDS011;38747;53.140;6.498;2023-06-26T01:47:40;11.52;;;9.15;;
52878;SDS011;38747;53.140;6.498;2023-06-26T01:50:12;12.90;;;8.37;;
52878;SDS011;38747;53.140;6.498;2023-06-26T01:52:43;12.52;;;8.93;;
52878;SDS011;38747;53.140;6.498;2023-06-26T01:55:23;11.07;;;8.30;;
52878;SDS011;38747;53.140;6.498;2023-06-26T01:57:56;13.75;;;8.63;;
52878;SDS011;38747;53.140;6.498;2023-06-26T02:00:22;12.10;;;9.18;;
52878;SDS011;38747;53.140;6.498;2023-06-26T02:02:49;12.53;;;9.37;;
52878;SDS011;38747;53.140;6.498;2023-06-26T02:05:14;11.93;;;9.48;;
52878;SDS011;38747;53.140;6.498;2023-06-26T02:07:40;13.33;;;10.13;;
52878;SDS011;38747;53.140;6.498;2023-06-26T02:10:06;12.68;;;9.00;;
52878;SDS011;38747;53.140;6.498;2023-06-26T02:12:34;12.88;;;9.95;;
52878;SDS011;38747;53.140;6.498;2023-06-26T02:15:01;11.68;;;8.38;;
52878;SDS011;38747;53.140;6.498;2023-06-26T02:17:27;13.02;;;9.45;;
52878;SDS011;38747;53.140;6.498;2023-06-26T02:19:53;12.37;;;9.37;;
52878;SDS011;38747;53.140;6.498;2023-06-26T02:22:18;12.60;;;9.63;;
52878;SDS011;38747;53.140;6.498;2023-06-26T02:24:44;12.18;;;9.02;;
52878;SDS011;38747;53.140;6.498;2023-06-26T02:27:10;12.38;;;8.88;;
52878;SDS011;38747;53.140;6.498;2023-06-26T02:29:36;12.33;;;8.90;;
52878;SDS011;38747;53.140;6.498;2023-06-26T02:32:02;13.70;;;10.18;;
52878;SDS011;38747;53.140;6.498;2023-06-26T02:34:27;13.67;;;8.90;;
52878;SDS011;38747;53.140;6.498;2023-06-26T02:36:53;17.07;;;10.37;;
52878;SDS011;38747;53.140;6.498;2023-06-26T02:39:20;12.75;;;8.80;;
52878;SDS011;38747;53.140;6.498;2023-06-26T02:41:46;12.52;;;9.43;;
52878;SDS011;38747;53.140;6.498;2023-06-26T02:44:11;12.40;;;9.50;;
52878;SDS011;38747;53.140;6.498;2023-06-26T02:46:38;12.90;;;9.85;;
52878;SDS011;38747;53.140;6.498;2023-06-26T02:49:04;13.68;;;9.20;;
52878;SDS011;38747;53.140;6.498;2023-06-26T02:51:31;12.70;;;9.80;;
52878;SDS011;38747;53.140;6.498;2023-06-26T02:53:57;13.13;;;10.05;;
52878;SDS011;38747;53.140;6.498;2023-06-26T02:56:22;11.90;;;9.20;;
52878;SDS011;38747;53.140;6.498;2023-06-26T02:58:48;13.00;;;9.73;;
52878;SDS011;38747;53.140;6.498;2023-06-26T03:01:14;13.73;;;9.67;;
52878;SDS011;38747;53.140;6.498;2023-06-26T03:03:40;13.63;;;9.83;;
52878;SDS011;38747;53.140;6.498;2023-06-26T03:06:07;14.40;;;9.70;;
52878;SDS011;38747;53.140;6.498;2023-06-26T03:08:36;14.48;;;9.98;;
52878;SDS011;38747;53.140;6.498;2023-06-26T03:11:02;11.80;;;9.82;;
52878;SDS011;38747;53.140;6.498;2023-06-26T03:13:28;13.17;;;10.20;;
52878;SDS011;38747;53.140;6.498;2023-06-26T03:15:54;13.13;;;10.02;;
52878;SDS011;38747;53.140;6.498;2023-06-26T03:18:19;12.33;;;9.70;;
52878;SDS011;38747;53.140;6.498;2023-06-26T03:20:45;15.27;;;10.68;;
52878;SDS011;38747;53.140;6.498;2023-06-26T03:23:11;13.83;;;10.17;;
52878;SDS011;38747;53.140;6.498;2023-06-26T03:25:36;12.52;;;10.07;;
52878;SDS011;38747;53.140;6.498;2023-06-26T03:28:02;13.53;;;9.93;;
52878;SDS011;38747;53.140;6.498;2023-06-26T03:30:28;13.10;;;10.23;;
52878;SDS011;38747;53.140;6.498;2023-06-26T03:32:53;12.57;;;9.67;;
52878;SDS011;38747;53.140;6.498;2023-06-26T03:35:19;12.77;;;9.57;;
52878;SDS011;38747;53.140;6.498;2023-06-26T03:37:44;13.32;;;10.27;;
52878;SDS011;38747;53.140;6.498;2023-06-26T03:40:10;14.70;;;9.97;;
52878;SDS011;38747;53.140;6.498;2023-06-26T03:42:36;13.87;;;10.27;;
52878;SDS011;38747;53.140;6.498;2023-06-26T03:45:02;13.87;;;9.77;;
52878;SDS011;38747;53.140;6.498;2023-06-26T03:47:28;13.60;;;9.95;;
52878;SDS011;38747;53.140;6.498;2023-06-26T03:49:53;13.13;;;9.82;;
52878;SDS011;38747;53.140;6.498;2023-06-26T03:52:19;13.37;;;10.43;;
52878;SDS011;38747;53.140;6.498;2023-06-26T03:54:44;14.80;;;10.23;;
52878;SDS011;38747;53.140;6.498;2023-06-26T03:57:10;14.82;;;10.32;;
52878;SDS011;38747;53.140;6.498;2023-06-26T03:59:36;14.30;;;10.23;;
52878;SDS011;38747;53.140;6.498;2023-06-26T04:02:02;13.32;;;10.00;;
52878;SDS011;38747;53.140;6.498;2023-06-26T04:04:28;13.85;;;9.73;;
52878;SDS011;38747;53.140;6.498;2023-06-26T04:06:54;11.77;;;8.82;;
52878;SDS011;38747;53.140;6.498;2023-06-26T04:09:20;15.23;;;10.20;;
52878;SDS011;38747;53.140;6.498;2023-06-26T04:11:46;16.15;;;10.40;;
52878;SDS011;38747;53.140;6.498;2023-06-26T04:14:11;14.53;;;10.17;;
52878;SDS011;38747;53.140;6.498;2023-06-26T04:16:37;13.73;;;9.63;;
52878;SDS011;38747;53.140;6.498;2023-06-26T04:19:03;15.33;;;9.97;;
52878;SDS011;38747;53.140;6.498;2023-06-26T04:21:30;14.13;;;9.95;;
52878;SDS011;38747;53.140;6.498;2023-06-26T04:23:56;14.82;;;9.93;;
52878;SDS011;38747;53.140;6.498;2023-06-26T04:26:21;13.32;;;9.55;;
52878;SDS011;38747;53.140;6.498;2023-06-26T04:28:47;13.70;;;9.57;;
52878;SDS011;38747;53.140;6.498;2023-06-26T04:31:13;14.50;;;9.77;;
52878;SDS011;38747;53.140;6.498;2023-06-26T04:33:39;12.87;;;8.40;;
52878;SDS011;38747;53.140;6.498;2023-06-26T04:36:04;12.45;;;8.30;;
52878;SDS011;38747;53.140;6.498;2023-06-26T04:38:31;13.47;;;8.33;;
52878;SDS011;38747;53.140;6.498;2023-06-26T04:40:58;12.20;;;7.80;;
52878;SDS011;38747;53.140;6.498;2023-06-26T04:43:24;10.15;;;6.97;;
52878;SDS011;38747;53.140;6.498;2023-06-26T04:45:50;13.93;;;7.63;;
52878;SDS011;38747;53.140;6.498;2023-06-26T04:48:15;13.73;;;7.43;;
52878;SDS011;38747;53.140;6.498;2023-06-26T04:50:41;12.68;;;6.78;;
52878;SDS011;38747;53.140;6.498;2023-06-26T04:53:07;15.07;;;7.23;;
52878;SDS011;38747;53.140;6.498;2023-06-26T04:55:33;15.60;;;6.93;;
52878;SDS011;38747;53.140;6.498;2023-06-26T04:57:58;13.45;;;7.25;;
52878;SDS011;38747;53.140;6.498;2023-06-26T05:00:24;14.60;;;7.00;;
52878;SDS011;38747;53.140;6.498;2023-06-26T05:02:50;14.43;;;6.72;;
52878;SDS011;38747;53.140;6.498;2023-06-26T05:05:25;13.82;;;7.15;;
52878;SDS011;38747;53.140;6.498;2023-06-26T05:07:54;15.30;;;6.77;;
52878;SDS011;38747;53.140;6.498;2023-06-26T05:10:20;15.02;;;6.95;;
52878;SDS011;38747;53.140;6.498;2023-06-26T05:12:46;14.15;;;7.80;;
52878;SDS011;38747;53.140;6.498;2023-06-26T05:15:12;16.97;;;7.70;;
52878;SDS011;38747;53.140;6.498;2023-06-26T05:17:38;14.75;;;7.50;;
52878;SDS011;38747;53.140;6.498;2023-06-26T05:20:03;15.73;;;7.27;;
52878;SDS011;38747;53.140;6.498;2023-06-26T05:22:31;17.08;;;7.63;;
52878;SDS011;38747;53.140;6.498;2023-06-26T05:24:58;17.20;;;7.78;;
52878;SDS011;38747;53.140;6.498;2023-06-26T05:27:25;13.55;;;7.30;;
52878;SDS011;38747;53.140;6.498;2023-06-26T05:29:51;15.88;;;7.30;;
52878;SDS011;38747;53.140;6.498;2023-06-26T05:32:17;15.90;;;6.83;;
52878;SDS011;38747;53.140;6.498;2023-06-26T05:34:45;12.90;;;6.30;;
52878;SDS011;38747;53.140;6.498;2023-06-26T05:37:14;14.98;;;6.40;;
52878;SDS011;38747;53.140;6.498;2023-06-26T05:39:47;13.85;;;5.50;;
52878;SDS011;38747;53.140;6.498;2023-06-26T05:42:13;15.82;;;6.25;;
52878;SDS011;38747;53.140;6.498;2023-06-26T05:44:39;13.00;;;5.53;;
52878;SDS011;38747;53.140;6.498;2023-06-26T05:47:05;15.23;;;4.70;;
52878;SDS011;38747;53.140;6.498;2023-06-26T05:49:31;14.98;;;4.90;;
52878;SDS011;38747;53.140;6.498;2023-06-26T05:51:58;10.67;;;4.40;;
52878;SDS011;38747;53.140;6.498;2023-06-26T05:54:24;11.82;;;4.72;;
52878;SDS011;38747;53.140;6.498;2023-06-26T05:56:51;10.77;;;4.40;;
52878;SDS011;38747;53.140;6.498;2023-06-26T05:59:24;11.50;;;4.38;;
52878;SDS011;38747;53.140;6.498;2023-06-26T06:01:51;12.97;;;3.77;;
52878;SDS011;38747;53.140;6.498;2023-06-26T06:04:17;10.20;;;3.95;;
52878;SDS011;38747;53.140;6.498;2023-06-26T06:06:43;12.85;;;4.10;;
52878;SDS011;38747;53.140;6.498;2023-06-26T06:09:08;13.47;;;3.90;;
52878;SDS011;38747;53.140;6.498;2023-06-26T06:11:34;12.45;;;4.40;;
52878;SDS011;38747;53.140;6.498;2023-06-26T06:14:00;11.80;;;3.53;;
52878;SDS011;38747;53.140;6.498;2023-06-26T06:16:26;12.43;;;3.72;;
52878;SDS011;38747;53.140;6.498;2023-06-26T06:18:54;13.60;;;3.93;;
52878;SDS011;38747;53.140;6.498;2023-06-26T06:21:20;11.90;;;3.30;;
52878;SDS011;38747;53.140;6.498;2023-06-26T06:23:46;12.15;;;3.00;;
52878;SDS011;38747;53.140;6.498;2023-06-26T06:26:11;13.20;;;3.10;;
52878;SDS011;38747;53.140;6.498;2023-06-26T06:28:38;9.93;;;2.80;;
52878;SDS011;38747;53.140;6.498;2023-06-26T06:31:04;10.02;;;2.97;;
52878;SDS011;38747;53.140;6.498;2023-06-26T06:33:29;10.40;;;3.00;;
52878;SDS011;38747;53.140;6.498;2023-06-26T06:35:55;9.02;;;2.95;;
52878;SDS011;38747;53.140;6.498;2023-06-26T06:38:21;11.73;;;2.80;;
52878;SDS011;38747;53.140;6.498;2023-06-26T06:40:46;10.70;;;2.60;;
52878;SDS011;38747;53.140;6.498;2023-06-26T06:43:12;10.40;;;2.53;;
52878;SDS011;38747;53.140;6.498;2023-06-26T06:45:38;11.35;;;2.40;;
52878;SDS011;38747;53.140;6.498;2023-06-26T06:48:04;7.43;;;2.10;;
52878;SDS011;38747;53.140;6.498;2023-06-26T06:50:30;11.05;;;2.20;;
52878;SDS011;38747;53.140;6.498;2023-06-26T06:52:55;9.15;;;2.30;;
52878;SDS011;38747;53.140;6.498;2023-06-26T06:55:21;8.63;;;2.10;;
52878;SDS011;38747;53.140;6.498;2023-06-26T06:57:47;11.52;;;2.03;;
52878;SDS011;38747;53.140;6.498;2023-06-26T07:00:13;10.13;;;2.20;;
52878;SDS011;38747;53.140;6.498;2023-06-26T07:02:42;12.13;;;2.10;;
52878;SDS011;38747;53.140;6.498;2023-06-26T07:05:09;10.13;;;2.00;;
52878;SDS011;38747;53.140;6.498;2023-06-26T07:07:36;9.77;;;2.33;;
52878;SDS011;38747;53.140;6.498;2023-06-26T07:10:04;8.07;;;1.63;;
52878;SDS011;38747;53.140;6.498;2023-06-26T07:12:31;8.10;;;1.70;;
52878;SDS011;38747;53.140;6.498;2023-06-26T07:14:56;8.43;;;1.73;;
52878;SDS011;38747;53.140;6.498;2023-06-26T07:17:22;7.55;;;1.67;;
52878;SDS011;38747;53.140;6.498;2023-06-26T07:19:49;5.97;;;1.57;;
52878;SDS011;38747;53.140;6.498;2023-06-26T07:22:15;8.18;;;1.90;;
52878;SDS011;38747;53.140;6.498;2023-06-26T07:24:41;6.25;;;1.60;;
52878;SDS011;38747;53.140;6.498;2023-06-26T07:27:07;7.97;;;1.58;;
52878;SDS011;38747;53.140;6.498;2023-06-26T07:29:32;9.17;;;1.70;;
52878;SDS011;38747;53.140;6.498;2023-06-26T07:31:58;8.45;;;1.63;;
52878;SDS011;38747;53.140;6.498;2023-06-26T07:34:24;9.83;;;1.90;;
52878;SDS011;38747;53.140;6.498;2023-06-26T07:36:49;5.43;;;1.40;;
52878;SDS011;38747;53.140;6.498;2023-06-26T07:39:15;6.57;;;1.43;;
52878;SDS011;38747;53.140;6.498;2023-06-26T07:41:41;5.35;;;1.33;;
52878;SDS011;38747;53.140;6.498;2023-06-26T07:44:06;6.87;;;1.77;;
52878;SDS011;38747;53.140;6.498;2023-06-26T07:46:32;6.72;;;1.50;;
52878;SDS011;38747;53.140;6.498;2023-06-26T07:48:58;5.67;;;1.20;;
52878;SDS011;38747;53.140;6.498;2023-06-26T07:51:23;7.72;;;1.45;;
52878;SDS011;38747;53.140;6.498;2023-06-26T07:53:49;9.00;;;1.30;;
52878;SDS011;38747;53.140;6.498;2023-06-26T07:56:15;7.88;;;1.20;;
52878;SDS011;38747;53.140;6.498;2023-06-26T07:58:41;5.10;;;1.30;;
52878;SDS011;38747;53.140;6.498;2023-06-26T08:01:06;7.15;;;1.17;;
52878;SDS011;38747;53.140;6.498;2023-06-26T08:03:32;4.85;;;1.20;;
52878;SDS011;38747;53.140;6.498;2023-06-26T08:05:58;5.47;;;1.47;;
52878;SDS011;38747;53.140;6.498;2023-06-26T08:08:23;6.67;;;1.50;;
52878;SDS011;38747;53.140;6.498;2023-06-26T08:10:49;7.28;;;1.40;;
52878;SDS011;38747;53.140;6.498;2023-06-26T08:13:14;7.77;;;1.40;;
52878;SDS011;38747;53.140;6.498;2023-06-26T08:15:40;5.13;;;1.33;;
52878;SDS011;38747;53.140;6.498;2023-06-26T08:18:06;6.83;;;1.30;;
52878;SDS011;38747;53.140;6.498;2023-06-26T08:20:31;5.30;;;1.30;;
52878;SDS011;38747;53.140;6.498;2023-06-26T08:22:57;6.20;;;1.60;;
52878;SDS011;38747;53.140;6.498;2023-06-26T08:25:23;4.53;;;1.52;;
52878;SDS011;38747;53.140;6.498;2023-06-26T08:27:48;6.40;;;1.37;;
52878;SDS011;38747;53.140;6.498;2023-06-26T08:30:17;6.22;;;1.40;;
52878;SDS011;38747;53.140;6.498;2023-06-26T08:32:43;7.32;;;1.50;;
52878;SDS011;38747;53.140;6.498;2023-06-26T08:35:08;5.80;;;1.50;;
52878;SDS011;38747;53.140;6.498;2023-06-26T08:37:35;5.30;;;1.40;;
52878;SDS011;38747;53.140;6.498;2023-06-26T08:40:00;5.20;;;1.20;;
52878;SDS011;38747;53.140;6.498;2023-06-26T08:42:26;8.27;;;1.63;;
52878;SDS011;38747;53.140;6.498;2023-06-26T08:44:52;5.47;;;1.92;;
52878;SDS011;38747;53.140;6.498;2023-06-26T08:47:18;5.67;;;1.43;;
52878;SDS011;38747;53.140;6.498;2023-06-26T08:53:16;5.70;;;1.50;;
52878;SDS011;38747;53.140;6.498;2023-06-26T08:55:22;5.20;;;1.83;;
52878;SDS011;38747;53.140;6.498;2023-06-26T08:57:51;6.57;;;1.93;;
52878;SDS011;38747;53.140;6.498;2023-06-26T09:00:18;5.47;;;1.90;;
52878;SDS011;38747;53.140;6.498;2023-06-26T09:02:45;6.90;;;1.83;;
52878;SDS011;38747;53.140;6.498;2023-06-26T09:05:11;5.65;;;1.67;;
52878;SDS011;38747;53.140;6.498;2023-06-26T09:07:37;6.93;;;1.70;;
52878;SDS011;38747;53.140;6.498;2023-06-26T09:10:02;5.40;;;1.70;;
52878;SDS011;38747;53.140;6.498;2023-06-26T09:12:28;7.70;;;1.93;;
52878;SDS011;38747;53.140;6.498;2023-06-26T09:14:55;5.68;;;1.80;;
52878;SDS011;38747;53.140;6.498;2023-06-26T09:17:30;5.53;;;1.50;;
52878;SDS011;38747;53.140;6.498;2023-06-26T09:19:58;4.88;;;1.50;;
52878;SDS011;38747;53.140;6.498;2023-06-26T09:22:24;8.47;;;1.70;;
52878;SDS011;38747;53.140;6.498;2023-06-26T09:24:50;6.65;;;1.80;;
52878;SDS011;38747;53.140;6.498;2023-06-26T09:27:16;4.82;;;1.52;;
52878;SDS011;38747;53.140;6.498;2023-06-26T09:29:45;8.15;;;1.85;;
52878;SDS011;38747;53.140;6.498;2023-06-26T09:32:12;4.67;;;1.80;;
52878;SDS011;38747;53.140;6.498;2023-06-26T09:34:40;8.20;;;1.80;;
52878;SDS011;38747;53.140;6.498;2023-06-26T09:37:07;7.22;;;1.60;;
52878;SDS011;38747;53.140;6.498;2023-06-26T09:39:33;9.80;;;1.60;;
52878;SDS011;38747;53.140;6.498;2023-06-26T09:41:59;5.88;;;1.70;;
52878;SDS011;38747;53.140;6.498;2023-06-26T09:44:26;5.40;;;1.73;;
52878;SDS011;38747;53.140;6.498;2023-06-26T09:46:52;5.37;;;1.73;;
52878;SDS011;38747;53.140;6.498;2023-06-26T09:49:20;6.78;;;2.13;;
52878;SDS011;38747;53.140;6.498;2023-06-26T09:51:45;6.75;;;1.67;;
52878;SDS011;38747;53.140;6.498;2023-06-26T09:54:11;6.23;;;1.80;;
52878;SDS011;38747;53.140;6.498;2023-06-26T09:56:37;6.10;;;1.95;;
52878;SDS011;38747;53.140;6.498;2023-06-26T09:59:03;8.30;;;1.90;;
52878;SDS011;38747;53.140;6.498;2023-06-26T10:01:30;7.10;;;1.98;;
52878;SDS011;38747;53.140;6.498;2023-06-26T10:03:56;5.72;;;1.85;;
52878;SDS011;38747;53.140;6.498;2023-06-26T10:06:31;5.27;;;1.80;;
52878;SDS011;38747;53.140;6.498;2023-06-26T10:09:01;6.43;;;1.80;;
52878;SDS011;38747;53.140;6.498;2023-06-26T10:11:47;6.75;;;1.90;;
52878;SDS011;38747;53.140;6.498;2023-06-26T10:14:13;6.80;;;2.30;;
52878;SDS011;38747;53.140;6.498;2023-06-26T10:16:39;5.90;;;1.88;;
52878;SDS011;38747;53.140;6.498;2023-06-26T10:19:08;10.00;;;2.03;;
52878;SDS011;38747;53.140;6.498;2023-06-26T10:21:35;6.35;;;2.00;;
52878;SDS011;38747;53.140;6.498;2023-06-26T10:24:04;5.45;;;1.90;;
52878;SDS011;38747;53.140;6.498;2023-06-26T10:26:31;6.15;;;1.95;;
52878;SDS011;38747;53.140;6.498;2023-06-26T10:29:06;7.50;;;1.80;;
52878;SDS011;38747;53.140;6.498;2023-06-26T10:31:32;7.40;;;1.90;;
52878;SDS011;38747;53.140;6.498;2023-06-26T10:34:00;5.38;;;1.90;;
52878;SDS011;38747;53.140;6.498;2023-06-26T10:36:27;6.45;;;1.80;;
52878;SDS011;38747;53.140;6.498;2023-06-26T10:38:55;5.72;;;2.15;;
52878;SDS011;38747;53.140;6.498;2023-06-26T10:41:23;4.75;;;1.92;;
52878;SDS011;38747;53.140;6.498;2023-06-26T10:43:50;4.83;;;1.73;;
52878;SDS011;38747;53.140;6.498;2023-06-26T10:46:45;7.07;;;2.10;;
52878;SDS011;38747;53.140;6.498;2023-06-26T10:49:13;8.13;;;2.10;;
52878;SDS011;38747;53.140;6.498;2023-06-26T10:51:39;5.32;;;2.10;;
52878;SDS011;38747;53.140;6.498;2023-06-26T10:54:14;4.72;;;1.70;;
52878;SDS011;38747;53.140;6.498;2023-06-26T10:56:41;5.23;;;1.70;;
52878;SDS011;38747;53.140;6.498;2023-06-26T10:59:14;5.70;;;1.70;;
52878;SDS011;38747;53.140;6.498;2023-06-26T11:01:45;5.15;;;1.40;;
52878;SDS011;38747;53.140;6.498;2023-06-26T11:07:14;7.15;;;1.92;;
52878;SDS011;38747;53.140;6.498;2023-06-26T11:12:42;4.25;;;1.50;;
52878;SDS011;38747;53.140;6.498;2023-06-26T11:15:16;5.53;;;1.42;;
52878;SDS011;38747;53.140;6.498;2023-06-26T11:17:43;3.80;;;1.20;;
52878;SDS011;38747;53.140;6.498;2023-06-26T11:20:14;6.50;;;1.27;;
52878;SDS011;38747;53.140;6.498;2023-06-26T11:22:41;6.00;;;1.10;;
52878;SDS011;38747;53.140;6.498;2023-06-26T11:25:08;5.97;;;1.13;;
52878;SDS011;38747;53.140;6.498;2023-06-26T11:30:08;5.80;;;1.17;;
52878;SDS011;38747;53.140;6.498;2023-06-26T11:32:38;4.50;;;1.30;;
52878;SDS011;38747;53.140;6.498;2023-06-26T11:35:04;5.53;;;1.40;;
52878;SDS011;38747;53.140;6.498;2023-06-26T11:37:31;5.72;;;1.10;;
52878;SDS011;38747;53.140;6.498;2023-06-26T11:39:57;5.72;;;1.20;;
52878;SDS011;38747;53.140;6.498;2023-06-26T11:42:23;7.63;;;1.20;;
52878;SDS011;38747;53.140;6.498;2023-06-26T11:44:52;5.83;;;1.10;;
52878;SDS011;38747;53.140;6.498;2023-06-26T11:47:20;6.95;;;1.20;;
52878;SDS011;38747;53.140;6.498;2023-06-26T11:49:47;5.43;;;1.05;;
52878;SDS011;38747;53.140;6.498;2023-06-26T11:52:14;4.70;;;0.85;;
52878;SDS011;38747;53.140;6.498;2023-06-26T11:54:41;4.20;;;0.90;;
52878;SDS011;38747;53.140;6.498;2023-06-26T11:57:07;4.97;;;1.00;;
52878;SDS011;38747;53.140;6.498;2023-06-26T11:59:39;4.30;;;1.10;;
52878;SDS011;38747;53.140;6.498;2023-06-26T12:02:14;7.30;;;1.17;;
52878;SDS011;38747;53.140;6.498;2023-06-26T12:04:41;6.65;;;1.17;;
52878;SDS011;38747;53.140;6.498;2023-06-26T12:07:08;5.57;;;1.20;;
52878;SDS011;38747;53.140;6.498;2023-06-26T12:09:42;5.33;;;1.20;;
52878;SDS011;38747;53.140;6.498;2023-06-26T12:12:10;6.50;;;1.10;;
52878;SDS011;38747;53.140;6.498;2023-06-26T12:14:36;5.72;;;1.20;;
52878;SDS011;38747;53.140;6.498;2023-06-26T12:17:08;3.55;;;0.98;;
52878;SDS011;38747;53.140;6.498;2023-06-26T12:19:39;4.65;;;1.23;;
52878;SDS011;38747;53.140;6.498;2023-06-26T12:22:08;7.07;;;1.17;;
52878;SDS011;38747;53.140;6.498;2023-06-26T12:24:38;9.00;;;1.40;;
52878;SDS011;38747;53.140;6.498;2023-06-26T12:27:08;4.60;;;1.40;;
52878;SDS011;38747;53.140;6.498;2023-06-26T12:29:35;6.38;;;1.15;;
52878;SDS011;38747;53.140;6.498;2023-06-26T12:32:03;6.50;;;1.05;;
52878;SDS011;38747;53.140;6.498;2023-06-26T12:34:31;6.27;;;1.33;;
52878;SDS011;38747;53.140;6.498;2023-06-26T12:37:01;5.55;;;1.10;;
52878;SDS011;38747;53.140;6.498;2023-06-26T12:39:30;7.28;;;1.35;;
52878;SDS011;38747;53.140;6.498;2023-06-26T12:42:19;5.65;;;1.15;;
52878;SDS011;38747;53.140;6.498;2023-06-26T12:44:47;5.40;;;1.30;;
52878;SDS011;38747;53.140;6.498;2023-06-26T12:47:14;5.70;;;1.50;;
52878;SDS011;38747;53.140;6.498;2023-06-26T12:49:41;5.80;;;1.30;;
52878;SDS011;38747;53.140;6.498;2023-06-26T12:52:10;5.55;;;1.23;;
52878;SDS011;38747;53.140;6.498;2023-06-26T12:54:40;5.53;;;1.60;;
52878;SDS011;38747;53.140;6.498;2023-06-26T12:57:11;7.00;;;1.63;;
52878;SDS011;38747;53.140;6.498;2023-06-26T12:59:39;3.83;;;1.10;;
52878;SDS011;38747;53.140;6.498;2023-06-26T13:02:05;6.70;;;1.48;;
52878;SDS011;38747;53.140;6.498;2023-06-26T13:04:31;6.93;;;1.38;;
52878;SDS011;38747;53.140;6.498;2023-06-26T13:06:57;7.82;;;1.20;;
52878;SDS011;38747;53.140;6.498;2023-06-26T13:09:32;6.93;;;1.33;;
52878;SDS011;38747;53.140;6.498;2023-06-26T13:11:59;7.43;;;1.67;;
52878;SDS011;38747;53.140;6.498;2023-06-26T13:14:25;7.53;;;1.50;;
52878;SDS011;38747;53.140;6.498;2023-06-26T13:16:51;7.30;;;1.37;;
52878;SDS011;38747;53.140;6.498;2023-06-26T13:19:16;6.82;;;1.40;;
52878;SDS011;38747;53.140;6.498;2023-06-26T13:21:42;8.03;;;1.50;;
52878;SDS011;38747;53.140;6.498;2023-06-26T13:24:08;6.55;;;1.45;;
52878;SDS011;38747;53.140;6.498;2023-06-26T13:26:34;6.07;;;1.30;;
52878;SDS011;38747;53.140;6.498;2023-06-26T13:29:00;5.23;;;1.20;;
52878;SDS011;38747;53.140;6.498;2023-06-26T13:31:26;5.68;;;1.30;;
52878;SDS011;38747;53.140;6.498;2023-06-26T13:33:52;5.03;;;1.17;;
52878;SDS011;38747;53.140;6.498;2023-06-26T13:36:18;6.63;;;1.43;;
52878;SDS011;38747;53.140;6.498;2023-06-26T13:38:46;5.25;;;1.25;;
52878;SDS011;38747;53.140;6.498;2023-06-26T13:41:14;8.50;;;1.40;;
52878;SDS011;38747;53.140;6.498;2023-06-26T13:43:40;8.20;;;1.70;;
52878;SDS011;38747;53.140;6.498;2023-06-26T13:46:06;7.07;;;1.90;;
52878;SDS011;38747;53.140;6.498;2023-06-26T13:48:32;5.32;;;1.38;;
52878;SDS011;38747;53.140;6.498;2023-06-26T13:50:58;5.43;;;1.10;;
52878;SDS011;38747;53.140;6.498;2023-06-26T13:53:24;5.15;;;1.50;;
52878;SDS011;38747;53.140;6.498;2023-06-26T13:55:49;6.03;;;1.33;;
52878;SDS011;38747;53.140;6.498;2023-06-26T13:58:15;5.13;;;1.37;;
52878;SDS011;38747;53.140;6.498;2023-06-26T14:00:41;4.80;;;1.27;;
52878;SDS011;38747;53.140;6.498;2023-06-26T14:03:10;5.47;;;1.47;;
52878;SDS011;38747;53.140;6.498;2023-06-26T14:05:36;7.57;;;1.45;;
52878;SDS011;38747;53.140;6.498;2023-06-26T14:08:06;6.47;;;1.30;;
52878;SDS011;38747;53.140;6.498;2023-06-26T14:10:33;6.65;;;1.30;;
52878;SDS011;38747;53.140;6.498;2023-06-26T14:13:00;5.32;;;1.40;;
52878;SDS011;38747;53.140;6.498;2023-06-26T14:15:26;7.50;;;1.33;;
52878;SDS011;38747;53.140;6.498;2023-06-26T14:17:51;4.45;;;1.30;;
52878;SDS011;38747;53.140;6.498;2023-06-26T14:20:17;5.43;;;1.20;;
52878;SDS011;38747;53.140;6.498;2023-06-26T14:22:47;5.53;;;1.30;;
52878;SDS011;38747;53.140;6.498;2023-06-26T14:25:13;5.53;;;1.10;;
52878;SDS011;38747;53.140;6.498;2023-06-26T14:27:39;4.25;;;1.20;;
52878;SDS011;38747;53.140;6.498;2023-06-26T14:30:05;6.10;;;1.47;;
52878;SDS011;38747;53.140;6.498;2023-06-26T14:32:32;6.03;;;1.53;;
52878;SDS011;38747;53.140;6.498;2023-06-26T14:34:58;7.63;;;1.50;;
52878;SDS011;38747;53.140;6.498;2023-06-26T14:37:25;4.47;;;1.10;;
52878;SDS011;38747;53.140;6.498;2023-06-26T14:39:51;6.40;;;1.45;;
52878;SDS011;38747;53.140;6.498;2023-06-26T14:42:17;6.77;;;1.30;;
52878;SDS011;38747;53.140;6.498;2023-06-26T14:44:43;3.88;;;1.23;;
52878;SDS011;38747;53.140;6.498;2023-06-26T14:47:11;5.20;;;1.20;;
52878;SDS011;38747;53.140;6.498;2023-06-26T14:49:38;6.78;;;1.45;;
52878;SDS011;38747;53.140;6.498;2023-06-26T14:52:04;8.40;;;1.40;;
52878;SDS011;38747;53.140;6.498;2023-06-26T14:54:30;7.13;;;1.38;;